createdAt,value
2022-12-14T00:02:21.769Z,27.97
2022-12-14T00:05:23.530Z,12.90
2022-12-14T00:08:25.834Z,17.70
2022-12-14T00:11:29.082Z,15.93
2022-12-14T00:14:30.786Z,15.40
2022-12-14T00:17:32.612Z,19.07
2022-12-14T00:20:34.350Z,14.23
2022-12-14T00:23:39.283Z,17.60
2022-12-14T00:26:41.187Z,15.43
2022-12-14T00:29:42.936Z,13.43
2022-12-14T00:32:44.758Z,12.07
2022-12-14T00:35:46.424Z,13.37
2022-12-14T00:38:48.272Z,14.03
2022-12-14T00:41:49.984Z,26.10
2022-12-14T00:44:51.768Z,18.37
2022-12-14T00:47:53.507Z,16.50
2022-12-14T00:50:56.150Z,21.53
2022-12-14T00:53:57.904Z,13.27
2022-12-14T00:56:59.718Z,16.27
2022-12-14T01:00:01.473Z,18.77
2022-12-14T01:03:03.867Z,14.23
2022-12-14T01:06:05.932Z,17.20
2022-12-14T01:09:07.704Z,19.10
2022-12-14T01:12:09.849Z,13.83
2022-12-14T01:15:12.063Z,16.07
2022-12-14T01:18:14.054Z,15.03
2022-12-14T01:21:19.379Z,10.07
2022-12-14T01:24:21.127Z,13.53
2022-12-14T01:27:22.908Z,14.17
2022-12-14T01:30:24.810Z,17.33
2022-12-14T01:33:26.820Z,14.50
2022-12-14T01:36:32.190Z,12.60
2022-12-14T01:39:33.876Z,9.90
2022-12-14T01:42:37.075Z,13.30
2022-12-14T01:45:39.010Z,16.37
2022-12-14T01:48:40.803Z,15.60
2022-12-14T01:51:47.030Z,12.27
2022-12-14T01:55:18.676Z,18.73
2022-12-14T01:58:22.923Z,15.43
2022-12-14T02:01:24.658Z,13.70
2022-12-14T02:04:26.821Z,20.20
2022-12-14T02:07:30.779Z,14.23
2022-12-14T02:10:33.633Z,14.33
2022-12-14T02:13:42.337Z,12.20
2022-12-14T02:16:44.045Z,18.23
2022-12-14T02:19:49.175Z,12.53
2022-12-14T02:23:02.745Z,12.67
2022-12-14T02:26:37.409Z,11.80
2022-12-14T02:30:07.196Z,15.23
2022-12-14T02:33:40.992Z,14.30
2022-12-14T02:36:53.354Z,14.50
2022-12-14T02:40:22.305Z,13.07
2022-12-14T02:43:54.345Z,12.50
2022-12-14T02:47:33.717Z,10.90
2022-12-14T02:50:54.805Z,13.20
2022-12-14T02:54:25.900Z,13.83
2022-12-14T02:58:01.559Z,15.43
2022-12-14T03:01:04.854Z,12.67
2022-12-14T03:04:07.370Z,11.77
2022-12-14T03:07:36.566Z,11.00
2022-12-14T03:10:48.182Z,12.80
2022-12-14T03:14:00.570Z,13.53
2022-12-14T03:17:16.404Z,15.50
2022-12-14T03:20:24.344Z,12.73
2022-12-14T03:23:31.638Z,10.60
2022-12-14T03:26:44.179Z,10.30
2022-12-14T03:29:53.887Z,10.00
2022-12-14T03:33:02.497Z,23.30
2022-12-14T03:36:13.001Z,16.30
2022-12-14T03:39:21.607Z,12.93
2022-12-14T03:42:33.059Z,13.73
2022-12-14T03:45:48.834Z,11.07
2022-12-14T03:48:54.877Z,8.50
2022-12-14T03:52:16.957Z,7.97
2022-12-14T03:55:43.620Z,11.27
2022-12-14T03:58:57.348Z,13.60
2022-12-14T04:02:08.310Z,17.30
2022-12-14T04:05:18.376Z,12.87
2022-12-14T04:08:39.491Z,8.63
2022-12-14T04:12:08.832Z,10.27
2022-12-14T04:15:43.515Z,13.47
2022-12-14T04:19:02.226Z,12.73
2022-12-14T04:22:12.999Z,11.37
2022-12-14T04:25:44.170Z,11.63
2022-12-14T04:29:13.136Z,15.47
2022-12-14T04:32:50.081Z,11.33
2022-12-14T04:35:53.901Z,9.13
2022-12-14T04:39:02.393Z,12.87
2022-12-14T04:42:06.188Z,13.30
2022-12-14T04:45:16.796Z,9.83
2022-12-14T04:48:24.406Z,8.40
2022-12-14T04:51:32.714Z,15.77
2022-12-14T04:54:45.250Z,7.93
2022-12-14T04:57:59.651Z,9.40
2022-12-14T05:01:26.605Z,9.57
2022-12-14T05:05:06.698Z,11.00
2022-12-14T05:08:31.483Z,16.17
2022-12-14T05:12:00.005Z,8.27
2022-12-14T05:15:04.792Z,14.80
2022-12-14T05:18:07.638Z,7.83
2022-12-14T05:21:29.910Z,13.07
2022-12-14T05:24:33.047Z,9.10
2022-12-14T05:27:34.839Z,16.77
2022-12-14T05:30:36.683Z,10.13
2022-12-14T05:33:38.413Z,9.23
2022-12-14T05:36:40.383Z,12.63
2022-12-14T05:39:42.157Z,10.07
2022-12-14T05:42:46.138Z,11.97
2022-12-14T05:45:50.406Z,14.03
2022-12-14T05:48:52.149Z,11.77
2022-12-14T05:51:53.978Z,8.30
2022-12-14T05:55:00.851Z,14.37
2022-12-14T05:58:05.490Z,14.43
2022-12-14T06:01:14.063Z,8.97
2022-12-14T06:04:19.236Z,14.00
2022-12-14T06:07:26.073Z,10.53
2022-12-14T06:10:29.664Z,11.30
2022-12-14T06:13:31.551Z,14.97
2022-12-14T06:16:33.846Z,12.30
2022-12-14T06:19:35.591Z,9.93
2022-12-14T06:22:39.484Z,18.90
2022-12-14T06:25:44.534Z,15.90
2022-12-14T06:28:46.263Z,12.77
2022-12-14T06:31:49.503Z,8.63
2022-12-14T06:34:52.029Z,10.30
2022-12-14T06:37:53.713Z,15.03
2022-12-14T06:40:55.511Z,12.43
2022-12-14T06:43:57.282Z,9.50
2022-12-14T06:46:59.350Z,7.47
2022-12-14T06:50:01.144Z,9.60
2022-12-14T06:53:03.026Z,14.37
2022-12-14T06:56:17.726Z,8.53
2022-12-14T06:59:19.486Z,10.83
2022-12-14T07:02:21.361Z,9.93
2022-12-14T07:05:23.287Z,12.67
2022-12-14T07:08:25.837Z,12.20
2022-12-14T07:11:29.737Z,15.87
2022-12-14T07:14:31.537Z,14.93
2022-12-14T07:17:36.328Z,14.40
2022-12-14T07:20:38.120Z,13.43
2022-12-14T07:23:41.959Z,18.13
2022-12-14T07:26:58.026Z,12.33
2022-12-14T07:30:01.564Z,15.70
2022-12-14T07:33:11.974Z,11.27
2022-12-14T07:36:26.863Z,12.13
2022-12-14T07:39:28.724Z,9.87
2022-12-14T07:42:30.405Z,10.00
2022-12-14T07:45:35.055Z,10.47
2022-12-14T07:48:37.157Z,12.27
2022-12-14T07:51:41.923Z,11.20
2022-12-14T07:54:43.606Z,12.07
2022-12-14T07:57:45.295Z,11.40
2022-12-14T08:00:48.214Z,13.27
2022-12-14T08:03:54.070Z,13.33
2022-12-14T08:06:55.940Z,12.53
2022-12-14T08:09:57.616Z,15.27
2022-12-14T08:12:59.278Z,23.87
2022-12-14T08:16:05.331Z,16.67
2022-12-14T08:19:07.110Z,18.00
2022-12-14T08:22:09.242Z,16.07
2022-12-14T08:25:10.900Z,13.97
2022-12-14T08:28:12.615Z,10.10
2022-12-14T08:31:19.935Z,9.17
2022-12-14T08:34:22.480Z,11.47
2022-12-14T08:37:24.151Z,10.73
2022-12-14T08:40:26.679Z,12.80
2022-12-14T08:43:28.818Z,10.80
2022-12-14T08:46:32.954Z,12.90
2022-12-14T08:49:34.766Z,9.00
2022-12-14T08:52:36.416Z,14.73
2022-12-14T08:55:38.784Z,11.97
2022-12-14T08:58:41.412Z,13.47
2022-12-14T09:01:43.300Z,12.67
2022-12-14T09:04:45.055Z,15.90
2022-12-14T09:07:46.756Z,26.37
2022-12-14T09:10:50.585Z,17.17
2022-12-14T09:13:55.922Z,21.73
2022-12-14T09:16:58.848Z,12.57
2022-12-14T09:20:00.723Z,11.17
2022-12-14T09:23:02.813Z,9.10
2022-12-14T09:26:10.134Z,15.67
2022-12-14T09:29:16.945Z,15.40
2022-12-14T09:32:18.608Z,15.53
2022-12-14T09:35:20.304Z,8.93
2022-12-14T09:38:21.956Z,13.20
2022-12-14T09:41:35.672Z,10.37
2022-12-14T09:44:43.517Z,13.80
2022-12-14T09:48:02.994Z,18.83
2022-12-14T09:51:04.961Z,12.40
2022-12-14T09:54:11.769Z,12.00
2022-12-14T09:57:24.141Z,12.63
2022-12-14T10:00:31.226Z,9.37
2022-12-14T10:03:47.803Z,11.33
2022-12-14T10:07:13.235Z,14.07
2022-12-14T10:10:32.819Z,13.00
2022-12-14T10:13:49.655Z,13.73
2022-12-14T10:17:02.501Z,8.63
2022-12-14T10:20:30.502Z,10.27
2022-12-14T10:23:33.946Z,10.33
2022-12-14T10:26:41.063Z,13.53
2022-12-14T10:30:02.321Z,11.47
2022-12-14T10:33:29.928Z,10.00
2022-12-14T10:36:44.536Z,12.63
2022-12-14T10:40:14.545Z,16.50
2022-12-14T10:43:44.364Z,10.47
2022-12-14T10:47:02.718Z,9.80
2022-12-14T10:50:04.419Z,14.83
2022-12-14T10:53:15.645Z,7.30
2022-12-14T10:56:24.039Z,13.97
2022-12-14T10:59:39.733Z,15.83
2022-12-14T11:02:51.717Z,13.90
2022-12-14T11:06:05.089Z,14.07
2022-12-14T11:09:21.307Z,12.87
2022-12-14T11:12:27.237Z,11.77
2022-12-14T11:15:31.854Z,11.00
2022-12-14T11:18:34.035Z,13.90
2022-12-14T11:21:38.730Z,12.53
2022-12-14T11:24:47.921Z,12.40
2022-12-14T11:27:49.934Z,12.03
2022-12-14T11:31:05.494Z,11.73
2022-12-14T11:34:39.296Z,15.53
2022-12-14T11:37:41.722Z,9.17
2022-12-14T11:40:43.455Z,15.60
2022-12-14T11:43:45.124Z,11.47
2022-12-14T11:46:59.025Z,14.57
2022-12-14T11:50:00.733Z,11.83
2022-12-14T11:53:11.552Z,12.33
2022-12-14T11:56:16.970Z,12.53
2022-12-14T11:59:19.561Z,10.73
2022-12-14T12:02:32.507Z,9.73
2022-12-14T12:05:40.473Z,11.57
2022-12-14T12:08:44.305Z,11.03
2022-12-14T12:11:46.314Z,12.80
2022-12-14T12:14:55.414Z,14.00
2022-12-14T12:18:19.266Z,13.10
2022-12-14T12:21:40.162Z,14.00
2022-12-14T12:25:16.728Z,11.93
2022-12-14T12:28:24.015Z,12.73
2022-12-14T12:31:33.316Z,11.03
2022-12-14T12:35:04.184Z,11.23
2022-12-14T12:38:31.570Z,11.13
2022-12-14T12:41:44.457Z,8.67
2022-12-14T12:45:18.962Z,15.53
2022-12-14T12:48:29.851Z,9.67
2022-12-14T12:51:42.172Z,13.80
2022-12-14T12:55:07.449Z,13.00
2022-12-14T12:58:19.176Z,10.83
2022-12-14T13:01:35.768Z,15.57
2022-12-14T13:04:40.816Z,11.30
2022-12-14T13:07:46.055Z,12.00
2022-12-14T13:14:14.384Z,12.43
2022-12-14T13:17:30.503Z,8.47
2022-12-14T13:20:34.509Z,13.33
2022-12-14T13:23:44.752Z,18.00
2022-12-14T13:27:15.331Z,10.10
2022-12-14T13:30:51.341Z,13.40
2022-12-14T13:34:03.958Z,14.03
2022-12-14T13:37:43.217Z,12.93
2022-12-14T13:41:06.085Z,10.73
2022-12-14T13:44:15.245Z,12.43
2022-12-14T13:47:22.390Z,13.83
2022-12-14T13:50:36.567Z,11.17
2022-12-14T13:53:50.549Z,11.83
2022-12-14T13:57:13.071Z,12.83
2022-12-14T14:00:45.920Z,11.90
2022-12-14T14:04:15.961Z,13.60
2022-12-14T14:07:23.616Z,11.10
2022-12-14T14:10:35.538Z,11.07
2022-12-14T14:13:37.894Z,12.90
2022-12-14T14:16:44.729Z,10.37
2022-12-14T14:19:49.583Z,13.27
2022-12-14T14:23:13.408Z,13.40
2022-12-14T14:26:26.207Z,8.87
2022-12-14T14:29:28.714Z,7.10
2022-12-14T14:32:41.686Z,10.10
2022-12-14T14:35:43.612Z,12.03
2022-12-14T14:38:45.492Z,14.30
2022-12-14T14:41:52.550Z,10.37
2022-12-14T14:44:58.630Z,12.17
2022-12-14T14:48:07.839Z,11.67
2022-12-14T14:51:27.682Z,12.43
2022-12-14T14:55:10.730Z,13.47
2022-12-14T14:58:01.217Z,15.20
2022-12-14T15:01:09.230Z,12.67
2022-12-14T15:04:21.678Z,16.63
2022-12-14T15:07:29.724Z,12.00
2022-12-14T15:10:36.780Z,15.33
2022-12-14T15:13:47.091Z,10.60
2022-12-14T15:16:48.825Z,12.87
2022-12-14T15:19:57.525Z,10.67
2022-12-14T15:22:59.256Z,15.77
2022-12-14T15:26:02.410Z,12.67
2022-12-14T15:29:04.488Z,9.93
2022-12-14T15:32:06.266Z,11.00
2022-12-14T15:35:16.934Z,12.17
2022-12-14T15:38:32.180Z,11.97
2022-12-14T15:41:33.877Z,10.53
2022-12-14T15:44:35.933Z,14.07
2022-12-14T15:47:37.980Z,14.77
2022-12-14T15:50:45.192Z,13.17
2022-12-14T15:53:52.674Z,11.33
2022-12-14T15:56:57.237Z,12.90
2022-12-14T15:59:59.209Z,10.20
2022-12-14T16:03:05.243Z,11.17
2022-12-14T16:06:10.197Z,13.33
2022-12-14T16:09:31.936Z,14.07
2022-12-14T16:12:49.477Z,8.30
2022-12-14T16:15:52.533Z,12.50
2022-12-14T16:19:08.610Z,8.73
2022-12-14T16:22:24.141Z,10.60
2022-12-14T16:25:25.823Z,9.60
2022-12-14T16:28:35.830Z,12.33
2022-12-14T16:31:37.847Z,8.87
2022-12-14T16:34:45.420Z,9.30
2022-12-14T16:37:51.173Z,9.47
2022-12-14T16:40:54.868Z,13.50
2022-12-14T16:44:00.312Z,11.30
2022-12-14T16:47:04.699Z,14.93
2022-12-14T16:50:40.058Z,11.97
2022-12-14T16:53:52.385Z,10.50
2022-12-14T16:56:58.510Z,10.37
2022-12-14T17:00:03.742Z,11.27
2022-12-14T17:03:16.900Z,18.37
2022-12-14T17:06:28.244Z,8.03
2022-12-14T17:09:33.354Z,9.57
2022-12-14T17:12:35.076Z,13.57
2022-12-14T17:16:02.096Z,12.67
2022-12-14T17:19:05.868Z,13.60
2022-12-14T17:22:16.055Z,15.53
2022-12-14T17:25:18.415Z,11.60
2022-12-14T17:28:24.367Z,11.50
2022-12-14T17:31:27.075Z,10.33
2022-12-14T17:34:30.183Z,10.30
2022-12-14T17:37:36.126Z,11.50
2022-12-14T17:47:32.472Z,15.10
2022-12-14T17:50:34.107Z,9.13
2022-12-14T17:53:36.280Z,8.13
2022-12-14T17:56:37.895Z,11.97
2022-12-14T17:59:40.889Z,15.90
2022-12-14T18:02:46.600Z,16.23
2022-12-14T18:05:49.439Z,13.23
2022-12-14T18:08:51.234Z,11.93
2022-12-14T18:12:21.364Z,16.73
2022-12-14T18:15:21.539Z,9.23
2022-12-14T18:18:25.617Z,10.43
2022-12-14T18:21:29.243Z,6.13
2022-12-14T18:24:31.080Z,10.37
2022-12-14T18:27:32.765Z,7.87
2022-12-14T18:30:45.876Z,10.50
2022-12-14T18:33:50.875Z,11.90
2022-12-14T18:36:52.685Z,10.20
2022-12-14T18:39:54.367Z,14.37
2022-12-14T18:42:56.816Z,12.90
2022-12-14T18:45:59.055Z,11.93
2022-12-14T18:49:00.906Z,10.77
2022-12-14T18:52:02.890Z,7.93
2022-12-14T18:55:07.094Z,8.90
2022-12-14T18:58:15.954Z,8.03
2022-12-14T19:01:21.505Z,18.17
2022-12-14T19:04:23.340Z,14.53
2022-12-14T19:07:25.129Z,32.90
2022-12-14T19:10:28.887Z,24.00
2022-12-14T19:13:30.772Z,26.23
2022-12-14T19:16:33.023Z,20.00
2022-12-14T19:19:39.445Z,21.63
2022-12-14T19:22:47.152Z,30.17
2022-12-14T19:25:48.878Z,35.77
2022-12-14T19:28:50.632Z,25.83
2022-12-14T19:31:54.398Z,25.63
2022-12-14T19:34:56.936Z,19.80
2022-12-14T19:37:58.794Z,21.73
2022-12-14T19:41:07.633Z,28.10
2022-12-14T19:44:09.518Z,32.77
2022-12-14T19:47:12.131Z,25.80
2022-12-14T19:50:15.615Z,27.03
2022-12-14T19:53:23.188Z,29.63
2022-12-14T19:56:25.361Z,30.93
2022-12-14T19:59:27.269Z,29.50
2022-12-14T20:02:29.428Z,21.23
2022-12-14T20:05:31.273Z,20.40
2022-12-14T20:08:34.287Z,18.90
2022-12-14T20:11:36.090Z,21.40
2022-12-14T20:14:42.574Z,16.17
2022-12-14T20:17:44.363Z,16.33
2022-12-14T20:20:49.314Z,18.20
2022-12-14T20:23:51.745Z,19.23
2022-12-14T20:26:53.628Z,24.47
2022-12-14T20:29:55.330Z,14.53
2022-12-14T20:32:57.398Z,20.10
2022-12-14T20:35:59.319Z,14.33
2022-12-14T20:39:01.807Z,24.53
2022-12-14T20:42:03.630Z,14.70
2022-12-14T20:45:07.339Z,22.97
2022-12-14T20:48:09.785Z,16.07
2022-12-14T20:51:11.897Z,15.60
2022-12-14T20:54:16.928Z,17.33
2022-12-14T20:57:18.684Z,18.10
2022-12-14T21:00:20.764Z,20.20
2022-12-14T21:03:22.846Z,16.10
2022-12-14T21:06:24.680Z,20.70
2022-12-14T21:09:26.374Z,18.70
2022-12-14T21:12:28.229Z,32.03
2022-12-14T21:15:29.992Z,26.43
2022-12-14T21:18:31.713Z,27.23
2022-12-14T21:21:33.872Z,31.03
2022-12-14T21:25:01.593Z,19.47
2022-12-14T21:27:58.113Z,22.30
2022-12-14T21:31:07.896Z,21.40
2022-12-14T21:34:17.772Z,27.47
2022-12-14T21:37:20.310Z,25.17
2022-12-14T21:40:40.561Z,27.77
2022-12-14T21:43:42.302Z,29.93
2022-12-14T21:46:44.133Z,21.07
2022-12-14T21:49:46.734Z,38.57
2022-12-14T21:52:48.772Z,24.53
2022-12-14T21:55:51.576Z,23.07
2022-12-14T21:58:54.089Z,22.47
2022-12-14T22:01:57.812Z,21.33
2022-12-14T22:04:59.828Z,21.17
2022-12-14T22:08:01.535Z,13.20
2022-12-14T22:11:06.238Z,20.47
2022-12-14T22:14:19.147Z,16.77
2022-12-14T22:17:20.953Z,19.97
2022-12-14T22:20:22.692Z,26.20
2022-12-14T22:23:24.374Z,18.27
2022-12-14T22:26:26.117Z,17.43
2022-12-14T22:29:27.874Z,23.20
2022-12-14T22:32:29.626Z,13.13
2022-12-14T22:35:32.027Z,14.47
2022-12-14T22:38:33.724Z,13.97
2022-12-14T22:41:35.381Z,22.03
2022-12-14T22:44:37.595Z,13.80
2022-12-14T22:47:39.353Z,12.00
2022-12-14T22:50:41.108Z,17.13
2022-12-14T22:53:43.354Z,16.00
2022-12-14T22:57:04.157Z,17.07
2022-12-14T23:00:11.290Z,22.27
2022-12-14T23:03:13.265Z,14.57
2022-12-14T23:06:18.034Z,22.97
2022-12-14T23:09:38.417Z,19.57
2022-12-14T23:12:58.997Z,23.17
2022-12-14T23:16:19.411Z,20.00
2022-12-14T23:19:39.883Z,18.47
2022-12-14T23:23:00.392Z,21.30
2022-12-14T23:26:22.508Z,19.37
2022-12-14T23:29:43.026Z,18.37
2022-12-14T23:33:03.479Z,31.90
2022-12-14T23:36:24.713Z,17.23
2022-12-14T23:39:45.255Z,18.70
2022-12-14T23:43:05.679Z,16.30
2022-12-14T23:46:26.078Z,15.63
2022-12-14T23:49:46.422Z,13.97
2022-12-14T23:53:07.144Z,19.33
2022-12-14T23:56:27.684Z,13.10
2022-12-14T23:59:49.735Z,12.67
